• Join FlightAware (Why Join?)
  • Login
  • US Flag GB Flag 
23:26 EDT


 

Airport Tracker/Info


-or-


 

Live Flight TrackerFlight Track Log ✈ DAL3682 ✈ 19-Apr-2013 ✈ KCVG - KMSP

Flight Track Log - Related Links

Times and Time Zones

All times are in EDT time to prevent confusion due to time zone crossing. See the DAL3682 flight status page for this flight to view local times or setup timezone preferences in your user account.

Time Position Orientation Groundspeed Altitude Reporting Facility
EDT Latitude Longitude Course Direction KTS MPH feet Rate Location/Type
11:40 39.0500 -84.6833 293° West 157 181 1,500  Level Cincinnati TRACON
11:41 39.0500 -84.7500 270° West 200 230 3,100 2,100 Climbing Cincinnati TRACON
11:42 39.0500 -84.8167 270° West 235 270 5,500 2,580 Climbing Cincinnati TRACON
11:43 39.0456 -84.9006 266° West 226 260 8,200 2,520 Climbing Indianapolis Center
11:44 39.0777 -85.0442 297° West  Level FlightAware Approximate
11:44 39.0564 -84.9803 280° West 245 282 10,500  Level Indianapolis Center
11:45 39.1231 -85.1692 293° West  Level FlightAware Approximate
11:45 39.0867 -85.0717 293° West 276 318 12,000  Level Indianapolis Center
11:46 39.1264 -85.1731 297° West 310 357 13,700 1,560 Climbing Indianapolis Center
11:47 39.1686 -85.2886 295° West 320 368 15,300 1,500 Climbing Indianapolis Center
11:48 39.2092 -85.3947 296° West 326 375 16,800 1,440 Climbing Indianapolis Center
11:49 39.2497 -85.5031 296° West 331 381 18,300 1,380 Climbing Indianapolis Center
11:50 39.2983 -85.6192 298° West 341 392 19,700 1,260 Climbing Indianapolis Center
11:51 39.3436 -85.7286 298° West 345 397 20,900 1,020 Climbing Indianapolis Center
11:52 39.3986 -85.8342 304° West 353 406 21,900 900 Climbing Indianapolis Center
11:53 39.4719 -85.9386 312° West 384 442 22,800 780 Climbing Indianapolis Center
11:54 39.5433 -86.0406 312° West 384 442 23,600 720 Climbing Indianapolis Center
11:55 39.6164 -86.1478 312° West 391 450 24,300 780 Climbing Indianapolis Center
11:56 39.7033 -86.2764 311° West 396 456 25,200 720 Climbing Indianapolis Center
11:57 39.7767 -86.3847 311° West 398 458 25,800 480 Climbing Indianapolis Center
11:58 39.8525 -86.4972 311° West 407 468 26,300 480 Climbing Indianapolis Center
11:59 39.9297 -86.6108 312° West 415 478 26,800 480 Climbing Indianapolis Center
12:00 40.0108 -86.7225 314° West 421 484 27,300 480 Climbing Indianapolis Center
12:01 40.1364 -86.7878 338° Northwest 481 554 27,800 300 Climbing Indianapolis Center
12:02 40.2653 -86.8511 339° North 492 566 28,000 120 Climbing Indianapolis Center
12:02 40.3175 -86.8769 339° North 497 572 28,000  Level Chicago Center
12:03 40.4514 -86.9394 340° North 509 586 28,000  Level Chicago Center
12:04 40.5817 -87.0028 340° North 506 582 28,000  Level Chicago Center
12:06 40.7094 -87.0642 340° North 496 571 28,000  Level Chicago Center
12:07 40.8386 -87.1283 339° North 496 571 28,000  Level Chicago Center
12:08 40.9683 -87.1922 340° North 500 575 28,000  Level Chicago Center
12:09 41.1256 -87.2694 340° North 504 580 28,000  Level Chicago Center
12:10 41.2408 -87.3600 329° Northwest 486 559 28,000  Level Chicago Center
12:11 41.3533 -87.4581 327° Northwest 487 560 28,000  Level Chicago Center
12:12 41.4633 -87.5550 327° Northwest 484 557 28,000  Level Chicago Center
12:13 41.5731 -87.6511 327° Northwest 480 552 28,000  Level Chicago Center
12:15 41.8139 -87.8628 327° Northwest 475 547 28,000  Level Chicago Center
12:16 41.9219 -87.9586 327° Northwest 471 542 28,000  Level Chicago Center
12:17 42.0286 -88.0536 327° Northwest 466 536 28,000  Level Chicago Center
12:18 42.1342 -88.1486 326° Northwest 461 531 28,000  Level Chicago Center
12:19 42.2600 -88.2614 326° Northwest 457 526 28,000  Level Chicago Center
12:20 42.3617 -88.3531 326° Northwest 451 519 28,000  Level Chicago Center
12:21 42.4642 -88.4450 327° Northwest 444 511 28,000  Level Chicago Center
12:22 42.5664 -88.5394 326° Northwest 443 510 28,000  Level Chicago Center
12:23 42.6683 -88.6325 326° Northwest 441 507 28,000  Level Chicago Center
12:24 42.7694 -88.7253 326° Northwest 439 505 28,000  Level Chicago Center
12:25 42.8881 -88.8358 326° Northwest 439 505 28,000  Level Chicago Center
12:26 42.9908 -88.9303 326° Northwest 442 509 28,000  Level Chicago Center
12:27 43.0917 -89.0242 326° Northwest 438 504 28,000  Level Chicago Center
12:28 43.1942 -89.1192 326° Northwest 441 507 28,000  Level Chicago Center
12:29 43.2942 -89.2131 326° Northwest 436 502 28,000  Level Chicago Center
12:30 43.3944 -89.3086 325° Northwest 435 501 28,000  Level Chicago Center
12:31 43.4956 -89.4036 326° Northwest 437 503 28,000  Level Chicago Center
12:32 43.6125 -89.5153 325° Northwest 436 502 28,000  Level Chicago Center
12:33 43.6458 -89.5458 326° Northwest 436 502 28,000  Level Minneapolis Center
12:34 43.7456 -89.6403 326° Northwest 434 499 28,000  Level Minneapolis Center
12:35 43.8436 -89.7353 325° Northwest 432 497 28,000  Level Minneapolis Center
12:36 43.9431 -89.8306 325° Northwest 433 498 28,000  Level Minneapolis Center
12:37 44.0244 -89.9108 325° Northwest 431 496 28,000  Level Minneapolis Center
12:38 44.1203 -90.0453 315° West 425 489 28,000  Level Minneapolis Center
12:39 44.1811 -90.2111 297° West 415 478 28,000  Level Minneapolis Center
12:40 44.2303 -90.3544 296° West 411 473 28,000  Level Minneapolis Center
12:41 44.2800 -90.4975 296° West 410 472 28,000  Level Minneapolis Center
12:42 44.3300 -90.6411 296° West 410 472 28,000  Level Minneapolis Center
12:43 44.3792 -90.7853 296° West 412 474 28,000  Level Minneapolis Center
12:44 44.4353 -90.9489 296° West 410 472 28,000 -600 Level Minneapolis Center
12:45 44.4819 -91.0897 295° West 405 466 26,800 -1,560 Descending Minneapolis Center
12:46 44.5261 -91.2203 295° West 384 442 24,900 -1,860 Descending Minneapolis Center
12:47 44.5689 -91.3486 295° West 371 427 23,000 -1,860 Descending Minneapolis Center
12:48 44.6108 -91.4761 295° West 365 420 21,100 -1,860 Descending Minneapolis Center
12:49 44.6514 -91.5994 295° West 356 410 19,200 -2,280 Descending Minneapolis Center
12:50 44.6953 -91.7336 295° West 324 373 16,500 -2,280 Descending Minneapolis Center
12:51 44.7314 -91.8469 294° West 319 367 14,600 -1,800 Descending Minneapolis Center
12:52 44.7589 -91.9014 305° West 324 373 13,800 -1,860 Descending FAA TRACON SMA TRACON (SMA)
12:52 44.7694 -91.9361 293° West 320 368 13,200 -1,920 Descending FAA TRACON SMA TRACON (SMA)
12:52 44.7808 -91.9692 296° West 309 356 12,600 -1,800 Descending FAA TRACON SMA TRACON (SMA)
12:53 44.7906 -92.0017 293° West 299 344 12,000 -1,980 Descending FAA TRACON SMA TRACON (SMA)
12:53 44.8031 -92.0414 294° West 292 336 11,300 -1,980 Descending FAA TRACON SMA TRACON (SMA)
12:53 44.8119 -92.0739 291° West 290 334 10,700 -1,800 Descending FAA TRACON SMA TRACON (SMA)
12:54 44.8225 -92.1058 295° West 292 336 10,100 -1,080 Descending FAA TRACON SMA TRACON (SMA)
12:54 44.8347 -92.1458 293° West 290 334 10,000 -180 Descending FAA TRACON SMA TRACON (SMA)
12:54 44.8431 -92.1781 290° West 287 330 10,000  Level FAA TRACON SMA TRACON (SMA)
12:55 44.8556 -92.2094 299° West 297 342 10,000  Level FAA TRACON SMA TRACON (SMA)
12:55 44.8656 -92.2489 290° West 282 325 10,000  Level FAA TRACON SMA TRACON (SMA)
12:55 44.8756 -92.2797 295° West 280 322 10,000  Level FAA TRACON SMA TRACON (SMA)
12:56 44.8794 -92.3225 277° West 289 333 10,000  Level FAA TRACON SMA TRACON (SMA)
12:56 44.8703 -92.3578 250° West 308 354 10,000  Level FAA TRACON SMA TRACON (SMA)
12:56 44.8553 -92.3906 237° Southwest 319 367 10,000 -300 Level FAA TRACON SMA TRACON (SMA)
12:57 44.8358 -92.4272 233° Southwest 311 358 9,800 -660 Descending FAA TRACON SMA TRACON (SMA)
12:57 44.8175 -92.4500 221° Southwest 298 343 9,600 -660 Descending FAA TRACON SMA TRACON (SMA)
12:57 44.7983 -92.4717 219° Southwest 289 333 9,400 -480 Descending FAA TRACON SMA TRACON (SMA)
12:58 44.7822 -92.4911 221° Southwest 270 311 9,300 -480 Descending FAA TRACON SMA TRACON (SMA)
12:58 44.7611 -92.5153 219° Southwest 254 292 9,100 -480 Descending FAA TRACON SMA TRACON (SMA)
12:58 44.7431 -92.5364 220° Southwest 260 299 9,000 -180 Descending FAA TRACON SMA TRACON (SMA)
12:59 44.7253 -92.5575 220° Southwest 267 307 9,000  Level FAA TRACON SMA TRACON (SMA)
12:59 44.7081 -92.5792 222° Southwest 270 311 9,000  Level FAA TRACON SMA TRACON (SMA)
12:59 44.6867 -92.6058 222° Southwest 268 308 9,000  Level FAA TRACON SMA TRACON (SMA)
13:00 44.6756 -92.6322 239° Southwest 269 310 9,000  Level FAA TRACON SMA TRACON (SMA)
13:00 44.6719 -92.6672 262° West 246 283 9,000 -300 Level FAA TRACON SMA TRACON (SMA)
13:00 44.6686 -92.6942 260° West 234 269 8,800 -900 Descending FAA TRACON SMA TRACON (SMA)
13:01 44.6669 -92.7197 265° West 221 254 8,400 -1,200 Descending FAA TRACON SMA TRACON (SMA)
13:01 44.6750 -92.7469 293° West 202 232 8,000 -1,200 Descending FAA TRACON SMA TRACON (SMA)
13:01 44.6847 -92.7656 306° West 192 221 7,600 -1,080 Descending FAA TRACON SMA TRACON (SMA)
13:02 44.6944 -92.7856 304° West 196 226 7,300 -1,200 Descending FAA TRACON SMA TRACON (SMA)
13:02 44.7050 -92.8111 300° West 197 227 6,800 -1,080 Descending FAA TRACON SMA TRACON (SMA)
13:02 44.7139 -92.8311 302° West 196 226 6,600 -780 Descending FAA TRACON SMA TRACON (SMA)
13:03 44.7225 -92.8511 301° West 194 223 6,300 -780 Descending FAA TRACON SMA TRACON (SMA)
13:03 44.7317 -92.8711 303° West 196 226 6,100 -600 Descending FAA TRACON SMA TRACON (SMA)
13:03 44.7414 -92.8953 300° West 188 216 5,900 -600 Descending FAA TRACON SMA TRACON (SMA)
13:04 44.7489 -92.9139 300° West 181 208 5,700 -480 Descending FAA TRACON SMA TRACON (SMA)
13:04 44.7567 -92.9322 301° West 178 205 5,600 -780 Descending FAA TRACON SMA TRACON (SMA)
13:04 44.7667 -92.9547 302° West 174 200 5,200 -1,080 Descending FAA TRACON SMA TRACON (SMA)
13:05 44.7744 -92.9725 302° West 174 200 4,900 -900 Descending FAA TRACON SMA TRACON (SMA)
13:05 44.7817 -92.9897 301° West 169 194 4,600 -1,080 Descending FAA TRACON SMA TRACON (SMA)
13:05 44.7906 -93.0092 303° West 156 180 4,200 -1,080 Descending FAA TRACON SMA TRACON (SMA)
13:06 44.7975 -93.0256 301° West 155 178 3,900 -900 Descending FAA TRACON SMA TRACON (SMA)
13:06 44.8050 -93.0422 302° West 159 183 3,600 -1,080 Descending FAA TRACON SMA TRACON (SMA)
13:06 44.8139 -93.0631 301° West 162 186 3,200 -960 Descending FAA TRACON SMA TRACON (SMA)
13:07 44.8203 -93.0781 301° West 151 174 3,000 -660 Descending FAA TRACON SMA TRACON (SMA)
13:07 44.8264 -93.0917 302° West 137 158 2,800 -780 Descending FAA TRACON SMA TRACON (SMA)
13:07 44.8333 -93.1081 301° West 127 146 2,500 -780 Descending FAA TRACON SMA TRACON (SMA)
13:08 44.8392 -93.1208 303° West 124 143 2,300 -600 Descending FAA TRACON SMA TRACON (SMA)